Time;durP1;ratioP1;P1;durP2;ratioP2;P2;SDS_P1;SDS_P2;PMS_P1;PMS_P2;Temp;Humidity;BMP_temperature;BMP_pressure;BME280_temperature;BME280_humidity;BME280_pressure;Samples;Min_cycle;Max_cycle;Signal;HPM_P1;HPM_P2
2023/05/03 00:02:12;;;;;;;2.08;1.70;;;3.70;99.90;;;;;;5116144;28;20051;-74
2023/05/03 00:04:39;;;;;;;4.30;1.60;;;4.00;99.90;;;;;;5117463;28;20044;-73
2023/05/03 00:07:04;;;;;;;4.50;1.60;;;3.70;99.90;;;;;;5117200;28;20126;-74
2023/05/03 00:09:32;;;;;;;4.93;2.13;;;3.60;99.90;;;;;;5117247;28;20067;-74
2023/05/03 00:11:59;;;;;;;3.20;1.75;;;3.60;99.90;;;;;;5116775;28;20524;-74
2023/05/03 00:14:25;;;;;;;2.88;1.60;;;3.60;99.90;;;;;;5117345;28;20035;-74
2023/05/03 00:16:50;;;;;;;4.55;1.67;;;3.50;99.90;;;;;;5116965;28;20356;-74
2023/05/03 00:19:16;;;;;;;4.78;1.77;;;3.50;99.90;;;;;;5117093;28;20127;-74
2023/05/03 00:21:42;;;;;;;4.47;1.77;;;3.50;99.90;;;;;;5117006;28;20078;-74
2023/05/03 00:24:07;;;;;;;2.95;1.55;;;3.50;99.90;;;;;;5116703;28;20035;-74
2023/05/03 00:26:33;;;;;;;5.93;1.83;;;3.40;99.90;;;;;;5116641;28;20110;-73
2023/05/03 00:28:59;;;;;;;3.13;2.30;;;4.40;99.90;;;;;;5116991;28;20043;-74
2023/05/03 00:31:25;;;;;;;4.57;1.88;;;3.40;99.90;;;;;;5116934;28;20417;-74
2023/05/03 00:33:51;;;;;;;2.33;1.52;;;3.40;99.90;;;;;;5116729;28;20042;-73
2023/05/03 00:36:16;;;;;;;3.97;1.60;;;3.30;99.90;;;;;;5116459;28;20044;-73
2023/05/03 00:38:42;;;;;;;3.88;1.70;;;3.30;99.90;;;;;;5116653;28;20039;-73
2023/05/03 00:41:11;;;;;;;2.42;1.58;;;3.10;99.90;;;;;;5116516;28;20038;-74
2023/05/03 00:43:38;;;;;;;2.60;1.80;;;3.20;99.90;;;;;;5116688;28;20043;-74
2023/05/03 00:46:06;;;;;;;2.30;1.63;;;3.20;99.90;;;;;;5116489;28;20383;-74
2023/05/03 00:48:33;;;;;;;3.75;1.80;;;3.20;99.90;;;;;;5116243;28;20300;-75
2023/05/03 00:50:59;;;;;;;;;;;3.20;99.90;;;;;;5116783;28;20047;-74
2023/05/03 00:53:26;;;;;;;2.38;1.92;;;3.90;99.90;;;;;;5116202;28;19923;-73
2023/05/03 00:55:54;;;;;;;6.35;1.70;;;3.10;99.90;;;;;;5116411;28;20082;-74
2023/05/03 00:58:20;;;;;;;2.42;1.80;;;3.10;99.90;;;;;;5116430;27;20040;-74
2023/05/03 01:00:47;;;;;;;2.50;1.87;;;3.10;99.90;;;;;;5116371;28;20040;-73
2023/05/03 01:03:13;;;;;;;;;;;3.00;99.90;;;;;;5116568;28;20040;-73
2023/05/03 01:06:04;;;;;;;2.63;1.83;;;3.00;99.90;;;;;;5116107;27;20355;-74
2023/05/03 01:08:59;;;;;;;3.13;1.70;;;2.90;99.90;;;;;;5116259;28;20039;-73
2023/05/03 01:11:48;;;;;;;4.68;2.55;;;2.90;99.90;;;;;;5083965;28;20087;-74
2023/05/03 01:14:31;;;;;;;7.03;2.60;;;2.90;99.90;;;;;;5116107;28;20503;-74
2023/05/03 01:17:06;;;;;;;5.30;2.20;;;2.80;99.90;;;;;;5116013;28;20126;-74
2023/05/03 01:19:43;;;;;;;3.58;2.17;;;2.80;99.90;;;;;;5115875;28;20043;-74
2023/05/03 01:22:17;;;;;;;5.27;2.43;;;2.80;99.90;;;;;;5115676;28;20122;-73
2023/05/03 01:24:49;;;;;;;2.88;2.13;;;2.80;99.90;;;;;;5115828;28;20047;-74
2023/05/03 01:27:15;;;;;;;3.22;2.20;;;2.80;99.90;;;;;;5115820;28;20075;-74
2023/05/03 01:29:41;;;;;;;5.50;2.30;;;2.80;99.90;;;;;;5115777;27;20124;-73
2023/05/03 01:32:18;;;;;;;4.30;2.25;;;2.70;99.90;;;;;;5114283;28;20036;-73
2023/05/03 01:35:25;;;;;;;2.78;1.90;;;2.70;99.90;;;;;;5115435;28;20039;-74
2023/05/03 01:37:51;;;;;;;2.88;2.10;;;2.70;99.90;;;;;;5032526;28;20046;-74
2023/05/03 01:40:18;;;;;;;2.20;2.00;;;2.70;99.90;;;;;;5102049;28;20085;-74
2023/05/03 01:42:45;;;;;;;3.40;2.30;;;2.70;99.90;;;;;;5115325;28;20043;-74
2023/05/03 01:45:11;;;;;;;;;;;2.60;99.90;;;;;;5115530;28;20039;-73
2023/05/03 01:47:37;;;;;;;6.53;2.30;;;2.60;99.90;;;;;;5115409;27;19920;-73
2023/05/03 01:50:03;;;;;;;3.42;2.60;;;2.60;99.90;;;;;;5115347;28;20051;-74
2023/05/03 01:52:29;;;;;;;3.55;2.10;;;2.60;99.90;;;;;;5114240;28;20404;-74
2023/05/03 01:54:55;;;;;;;3.20;2.20;;;2.60;99.90;;;;;;5113902;28;20043;-74
2023/05/03 01:57:21;;;;;;;2.72;2.30;;;2.60;99.90;;;;;;5115111;28;20047;-73
2023/05/03 01:59:47;;;;;;;2.92;1.73;;;2.60;99.90;;;;;;5115336;28;20122;-73
2023/05/03 02:02:12;;;;;;;2.53;2.03;;;2.50;99.90;;;;;;5114889;28;20055;-73
2023/05/03 02:04:38;;;;;;;3.13;2.05;;;2.60;99.90;;;;;;5115169;28;20522;-74
2023/05/03 02:07:03;;;;;;;3.55;1.98;;;2.50;99.90;;;;;;5114988;28;20035;-73
2023/05/03 02:09:29;;;;;;;2.55;1.77;;;2.50;99.90;;;;;;5114942;28;20467;-74
2023/05/03 02:11:55;;;;;;;3.33;2.28;;;2.50;99.90;;;;;;5114718;28;20479;-74
2023/05/03 02:14:20;;;;;;;3.65;2.10;;;2.50;99.90;;;;;;5114650;28;20128;-73
2023/05/03 02:16:46;;;;;;;4.35;2.00;;;2.50;99.90;;;;;;5114461;28;20097;-74
2023/05/03 02:19:11;;;;;;;4.00;1.83;;;2.50;99.90;;;;;;5114472;28;20039;-74
2023/05/03 02:21:37;;;;;;;4.78;2.20;;;2.50;99.90;;;;;;5114267;28;20087;-73
2023/05/03 02:24:03;;;;;;;3.78;2.78;;;2.50;99.90;;;;;;5113773;28;20032;-74
2023/05/03 02:26:28;;;;;;;3.83;2.03;;;2.50;99.90;;;;;;5114343;28;20040;-75
2023/05/03 02:28:57;;;;;;;4.78;2.35;;;2.50;99.90;;;;;;5114499;28;20168;-74
2023/05/03 02:31:23;;;;;;;2.78;1.98;;;2.50;99.90;;;;;;5114151;28;20043;-74
2023/05/03 02:33:49;;;;;;;4.00;2.10;;;2.40;99.90;;;;;;5114501;28;20028;-73
2023/05/03 02:36:15;;;;;;;4.15;2.13;;;2.40;99.90;;;;;;5114253;28;20040;-74
2023/05/03 02:38:40;;;;;;;4.32;2.20;;;3.40;99.90;;;;;;5114084;28;20581;-74
2023/05/03 02:41:06;;;;;;;3.70;2.10;;;2.40;99.90;;;;;;5114206;28;20063;-73
2023/05/03 02:43:32;;;;;;;3.63;2.55;;;2.30;99.90;;;;;;5114011;28;20051;-73
2023/05/03 02:45:58;;;;;;;3.75;1.95;;;2.30;99.90;;;;;;5114301;28;20348;-74
2023/05/03 02:48:23;;;;;;;2.38;2.00;;;2.30;99.90;;;;;;5114052;28;20044;-73
2023/05/03 02:50:49;;;;;;;3.15;2.25;;;2.30;99.90;;;;;;5114071;28;20031;-74
2023/05/03 02:53:15;;;;;;;6.63;2.50;;;2.30;99.90;;;;;;5114239;28;20039;-74
2023/05/03 02:55:40;;;;;;;4.13;2.30;;;2.20;99.90;;;;;;5114139;28;20035;-73
2023/05/03 02:58:06;;;;;;;3.85;2.38;;;2.20;99.90;;;;;;5113885;28;20043;-74
2023/05/03 03:00:32;;;;;;;5.30;2.42;;;2.20;99.90;;;;;;5113913;28;20043;-74
2023/05/03 03:03:01;;;;;;;3.63;2.10;;;2.20;99.90;;;;;;5114107;28;20048;-73
2023/05/03 03:05:26;;;;;;;5.82;2.40;;;2.20;99.90;;;;;;5113943;28;20092;-74
2023/05/03 03:07:52;;;;;;;4.15;2.00;;;2.20;99.90;;;;;;5114028;28;20417;-74
2023/05/03 03:10:17;;;;;;;3.70;1.90;;;2.20;99.90;;;;;;5113999;28;20039;-73
2023/05/03 03:12:43;;;;;;;4.45;2.33;;;2.20;99.90;;;;;;5113939;28;20062;-74
2023/05/03 03:15:12;;;;;;;3.67;1.88;;;2.20;99.90;;;;;;5112627;28;20047;-74
2023/05/03 03:17:38;;;;;;;3.95;2.25;;;2.20;99.90;;;;;;5113762;28;20032;-74
2023/05/03 03:20:10;;;;;;;3.65;2.03;;;2.20;99.90;;;;;;5113684;28;20031;-74
2023/05/03 03:22:36;;;;;;;5.68;2.10;;;2.20;99.90;;;;;;5113737;28;20114;-74
2023/05/03 03:25:03;;;;;;;4.87;2.53;;;2.20;99.90;;;;;;5113891;28;20043;-74
2023/05/03 03:27:29;;;;;;;5.25;2.25;;;2.20;99.90;;;;;;5113640;28;20269;-73
2023/05/03 03:29:54;;;;;;;5.43;2.30;;;2.10;99.90;;;;;;5113386;28;20049;-73
2023/05/03 03:32:20;;;;;;;3.65;2.00;;;2.00;99.90;;;;;;5113799;28;20119;-74
2023/05/03 03:34:46;;;;;;;6.22;2.05;;;1.90;99.90;;;;;;5114060;28;20483;-74
2023/05/03 03:37:12;;;;;;;5.20;2.60;;;1.90;99.90;;;;;;5117982;28;20054;-73
2023/05/03 03:39:40;;;;;;;3.42;2.47;;;1.90;99.90;;;;;;5117674;28;20118;-74
2023/05/03 03:42:07;;;;;;;3.65;2.13;;;1.90;99.90;;;;;;5117575;28;20036;-73
2023/05/03 03:44:33;;;;;;;;;;;1.90;99.90;;;;;;5118165;28;20043;-74
2023/05/03 03:46:58;;;;;;;3.28;2.00;;;1.90;99.90;;;;;;5117695;28;19920;-73
2023/05/03 03:49:24;;;;;;;3.22;2.20;;;1.80;99.90;;;;;;5117504;28;20049;-74
2023/05/03 03:51:50;;;;;;;3.47;2.28;;;1.80;99.90;;;;;;5117630;28;20036;-73
2023/05/03 03:54:15;;;;;;;5.75;2.55;;;1.80;99.90;;;;;;5117372;28;20035;-73
2023/05/03 03:56:41;;;;;;;3.97;2.08;;;1.80;99.90;;;;;;5117299;28;20088;-74
2023/05/03 03:59:07;;;;;;;3.97;2.40;;;1.80;99.90;;;;;;5117429;27;20047;-74
2023/05/03 04:01:33;;;;;;;4.93;2.28;;;1.80;99.90;;;;;;5117197;28;20463;-73
2023/05/03 04:03:58;;;;;;;6.50;2.78;;;1.90;99.90;;;;;;5117231;28;20039;-74
2023/05/03 04:06:25;;;;;;;6.00;3.15;;;2.60;99.90;;;;;;5117212;28;20069;-74
2023/05/03 04:08:51;;;;;;;3.42;2.35;;;1.90;99.90;;;;;;5117376;28;20046;-73
2023/05/03 04:11:17;;;;;;;3.63;2.65;;;2.00;99.90;;;;;;5117245;28;20035;-73
2023/05/03 04:13:42;;;;;;;4.47;2.40;;;2.00;99.90;;;;;;5117101;27;20045;-73
2023/05/03 04:16:08;;;;;;;4.68;2.20;;;2.00;99.90;;;;;;5117206;28;20069;-74
2023/05/03 04:18:34;;;;;;;4.57;2.15;;;2.00;99.90;;;;;;5115891;28;20118;-73
2023/05/03 04:21:00;;;;;;;4.13;2.40;;;2.00;99.90;;;;;;5116924;28;20035;-73
2023/05/03 04:23:25;;;;;;;4.60;3.40;;;2.10;99.90;;;;;;5116632;28;20043;-73
2023/05/03 04:25:51;;;;;;;4.45;2.15;;;2.10;99.90;;;;;;5116639;28;20035;-74
2023/05/03 04:28:17;;;;;;;5.93;2.47;;;2.20;99.90;;;;;;5116950;28;20040;-74
2023/05/03 04:30:43;;;;;;;3.60;2.40;;;2.30;99.90;;;;;;5116871;28;20046;-74
2023/05/03 04:33:10;;;;;;;4.03;2.38;;;2.30;99.90;;;;;;5116709;28;20079;-74
2023/05/03 04:35:35;;;;;;;3.57;2.43;;;2.40;99.90;;;;;;5116873;28;20047;-74
2023/05/03 04:38:02;;;;;;;3.13;2.40;;;2.50;99.90;;;;;;5116727;28;20095;-74
2023/05/03 04:40:28;;;;;;;4.97;2.63;;;2.60;99.90;;;;;;5116549;28;20048;-73
2023/05/03 04:42:54;;;;;;;3.63;2.60;;;2.60;99.90;;;;;;5116601;28;20309;-73
2023/05/03 04:45:20;;;;;;;4.03;2.45;;;2.70;99.90;;;;;;5116432;28;20054;-75
2023/05/03 04:47:46;;;;;;;4.82;2.70;;;2.70;99.90;;;;;;5115790;28;20035;-74
2023/05/03 04:50:12;;;;;;;4.28;2.60;;;2.90;99.90;;;;;;5116523;28;20046;-73
2023/05/03 04:52:38;;;;;;;3.15;2.30;;;3.00;99.90;;;;;;5116650;28;20031;-73
2023/05/03 04:55:04;;;;;;;5.72;2.72;;;3.00;99.90;;;;;;5116496;28;20085;-73
2023/05/03 04:57:31;;;;;;;6.20;3.00;;;3.10;99.90;;;;;;5116074;28;20118;-74
2023/05/03 04:59:57;;;;;;;4.85;2.63;;;3.20;99.90;;;;;;5116185;28;20043;-74
2023/05/03 05:02:22;;;;;;;4.80;2.38;;;3.30;99.90;;;;;;5114651;28;20078;-74
2023/05/03 05:04:48;;;;;;;8.05;2.53;;;3.40;99.90;;;;;;5116377;28;20097;-74
2023/05/03 05:07:14;;;;;;;4.90;3.25;;;3.50;99.90;;;;;;5115255;28;20482;-74
2023/05/03 05:09:39;;;;;;;4.25;2.53;;;3.60;99.90;;;;;;5116314;28;20475;-73
2023/05/03 05:12:05;;;;;;;7.05;2.53;;;3.60;99.90;;;;;;5116064;28;20039;-74
2023/05/03 05:14:32;;;;;;;3.75;2.55;;;3.70;99.90;;;;;;5115913;28;20397;-74
2023/05/03 05:17:01;;;;;;;4.22;2.60;;;3.70;99.90;;;;;;5115930;28;20073;-74
2023/05/03 05:19:26;;;;;;;5.53;2.80;;;3.80;99.90;;;;;;5114564;28;20078;-73
2023/05/03 05:21:52;;;;;;;5.68;2.88;;;3.90;99.90;;;;;;5115775;28;20083;-74
2023/05/03 05:24:18;;;;;;;4.80;3.00;;;4.00;99.90;;;;;;5115899;28;20038;-74
2023/05/03 05:26:43;;;;;;;7.05;2.90;;;4.00;99.90;;;;;;5115566;28;20082;-74
2023/05/03 05:29:09;;;;;;;3.45;2.90;;;4.10;99.90;;;;;;5115550;28;20051;-75
2023/05/03 05:31:35;;;;;;;4.65;2.60;;;4.30;99.90;;;;;;5115736;28;20040;-74
2023/05/03 05:34:02;;;;;;;3.70;2.72;;;4.30;99.90;;;;;;5115772;28;20043;-79
2023/05/03 05:36:29;;;;;;;4.93;2.65;;;4.40;99.90;;;;;;5115621;28;20047;-76
2023/05/03 05:38:54;;;;;;;;;;;4.50;99.90;;;;;;5114850;28;20371;-76
2023/05/03 05:41:20;;;;;;;3.33;2.78;;;4.60;99.90;;;;;;5115681;28;19916;-77
2023/05/03 05:43:45;;;;;;;6.65;2.67;;;4.70;99.90;;;;;;5114929;28;20081;-76
2023/05/03 05:46:11;;;;;;;4.05;2.40;;;4.80;99.90;;;;;;5115519;28;20035;-77
2023/05/03 05:48:37;;;;;;;3.95;2.50;;;4.90;99.90;;;;;;5115550;28;20039;-78
2023/05/03 05:51:03;;;;;;;6.63;2.55;;;5.00;99.90;;;;;;5115320;28;20455;-77
2023/05/03 05:53:29;;;;;;;3.35;2.53;;;5.10;99.90;;;;;;5115580;28;20035;-78
2023/05/03 05:55:55;;;;;;;5.43;2.45;;;5.20;99.90;;;;;;5115047;28;20058;-75
2023/05/03 05:58:21;;;;;;;3.70;2.60;;;5.30;99.90;;;;;;5113751;28;20520;-76
2023/05/03 06:00:47;;;;;;;4.57;2.40;;;5.50;99.90;;;;;;5114036;28;20043;-74
2023/05/03 06:03:14;;;;;;;5.60;2.92;;;5.60;99.90;;;;;;5115209;28;20044;-72
2023/05/03 06:05:40;;;;;;;5.78;2.75;;;5.60;99.90;;;;;;5114998;28;20088;-74
2023/05/03 06:08:06;;;;;;;8.75;3.75;;;5.80;99.90;;;;;;5114948;28;20118;-76
2023/05/03 06:10:32;;;;;;;4.22;3.00;;;5.90;99.90;;;;;;5114685;28;20043;-75
2023/05/03 06:12:58;;;;;;;3.57;2.60;;;6.00;99.90;;;;;;5114392;28;20504;-72
2023/05/03 06:15:23;;;;;;;7.05;2.80;;;6.10;99.90;;;;;;5114445;28;20070;-75
2023/05/03 06:17:49;;;;;;;5.07;2.63;;;6.20;99.90;;;;;;5113418;28;20118;-73
2023/05/03 06:20:16;;;;;;;4.05;2.60;;;6.30;99.90;;;;;;5114851;28;20062;-75
2023/05/03 06:22:42;;;;;;;6.03;3.00;;;6.90;99.90;;;;;;5114415;28;20036;-75
2023/05/03 06:25:08;;;;;;;4.00;2.65;;;6.60;99.90;;;;;;5114752;28;20452;-75
2023/05/03 06:27:34;;;;;;;6.38;2.70;;;6.70;99.90;;;;;;5114364;28;20097;-75
2023/05/03 06:29:59;;;;;;;6.50;2.60;;;7.10;99.90;;;;;;5113139;28;20035;-77
2023/05/03 06:32:25;;;;;;;5.05;2.55;;;6.90;99.90;;;;;;5114483;28;20039;-74
2023/05/03 06:34:51;;;;;;;5.93;2.50;;;7.00;99.90;;;;;;5114571;28;20050;-75
2023/05/03 06:37:17;;;;;;;4.60;2.60;;;7.10;99.90;;;;;;5114573;28;20048;-74
2023/05/03 06:39:42;;;;;;;6.00;2.42;;;7.30;99.90;;;;;;5114100;28;20092;-73
2023/05/03 06:42:08;;;;;;;3.88;2.72;;;7.30;99.90;;;;;;5095909;28;20074;-73
2023/05/03 06:44:34;;;;;;;4.57;2.28;;;7.50;99.90;;;;;;5114255;28;20112;-74
2023/05/03 06:46:59;;;;;;;4.30;2.40;;;7.60;99.90;;;;;;5114335;28;20035;-75
2023/05/03 06:49:25;;;;;;;4.50;2.58;;;7.70;99.90;;;;;;5114195;28;20137;-75
2023/05/03 06:51:51;;;;;;;3.70;2.40;;;7.80;99.90;;;;;;5114251;28;20044;-75
2023/05/03 06:54:16;;;;;;;6.05;2.50;;;7.80;99.90;;;;;;5114101;28;20032;-75
2023/05/03 06:56:42;;;;;;;5.25;2.30;;;7.90;99.90;;;;;;5113575;28;20092;-77
2023/05/03 06:59:07;;;;;;;4.72;2.08;;;8.00;99.90;;;;;;5114077;28;20043;-73
2023/05/03 07:01:33;;;;;;;3.60;2.67;;;8.20;99.90;;;;;;5113926;28;20031;-74
2023/05/03 07:03:59;;;;;;;3.38;2.30;;;8.20;99.90;;;;;;5114021;28;20041;-74
2023/05/03 07:06:25;;;;;;;4.47;2.45;;;8.40;99.90;;;;;;5114096;28;20482;-73
2023/05/03 07:08:52;;;;;;;2.90;2.22;;;8.50;99.90;;;;;;5113973;28;20039;-74
2023/05/03 07:11:23;;;;;;;4.57;2.15;;;8.60;99.90;;;;;;5113313;28;20096;-75
2023/05/03 07:13:50;;;;;;;4.80;2.00;;;9.10;99.90;;;;;;5113978;27;20035;-74
2023/05/03 07:16:16;;;;;;;;;;;8.90;99.90;;;;;;5114323;28;20047;-76
2023/05/03 07:18:41;;;;;;;7.45;2.00;;;9.00;99.90;;;;;;5113951;28;20352;-75
2023/05/03 07:21:07;;;;;;;5.22;2.22;;;9.10;99.90;;;;;;5114104;28;20081;-74
2023/05/03 07:23:32;;;;;;;3.30;1.73;;;9.20;99.90;;;;;;5114165;28;20088;-77
2023/05/03 07:25:58;;;;;;;4.55;1.50;;;9.40;99.90;;;;;;5113340;28;20043;-77
2023/05/03 07:28:24;;;;;;;4.03;1.52;;;9.50;99.90;;;;;;5113910;28;20043;-77
2023/05/03 07:30:50;;;;;;;5.00;1.60;;;9.80;99.90;;;;;;5113954;28;20051;-78
2023/05/03 07:33:16;;;;;;;3.72;1.35;;;9.70;99.90;;;;;;5113983;28;20078;-78
2023/05/03 07:35:44;;;;;;;1.70;1.30;;;9.80;99.90;;;;;;5113092;28;20051;-77
2023/05/03 07:38:10;;;;;;;2.22;1.40;;;9.80;99.90;;;;;;5113535;28;20486;-78
2023/05/03 07:40:36;;;;;;;2.33;1.40;;;9.80;99.90;;;;;;5113582;28;20039;-77
2023/05/03 07:43:02;;;;;;;4.45;1.58;;;10.00;99.90;;;;;;5113780;28;20046;-79
2023/05/03 07:45:27;;;;;;;1.75;1.20;;;9.70;99.90;;;;;;5114027;28;20047;-76
2023/05/03 07:47:54;;;;;;;2.47;1.48;;;9.80;99.90;;;;;;5113722;28;20043;-75
2023/05/03 07:50:19;;;;;;;1.73;1.30;;;10.50;99.90;;;;;;5112643;28;20039;-79
2023/05/03 07:52:46;;;;;;;2.88;1.30;;;10.30;99.90;;;;;;5113505;28;20035;-80
2023/05/03 07:55:12;;;;;;;3.75;1.40;;;10.30;99.90;;;;;;5113348;28;20127;-76
2023/05/03 07:57:37;;;;;;;2.50;1.20;;;10.40;99.90;;;;;;5113692;28;20123;-76
2023/05/03 08:00:04;;;;;;;4.13;1.60;;;10.20;99.90;;;;;;5113840;28;20039;-77
2023/05/03 08:02:30;;;;;;;3.42;1.75;;;10.30;99.90;;;;;;5113326;28;20044;-80
2023/05/03 08:04:55;;;;;;;5.07;1.40;;;10.20;99.90;;;;;;5113405;28;20047;-78
2023/05/03 08:07:22;;;;;;;1.25;1.10;;;10.20;99.90;;;;;;5113676;28;20479;-77
2023/05/03 08:09:48;;;;;;;3.55;1.70;;;10.20;99.90;;;;;;5113207;28;20043;-80
2023/05/03 08:12:13;;;;;;;2.00;1.57;;;10.20;99.90;;;;;;5113445;28;20054;-79
2023/05/03 08:14:40;;;;;;;3.33;1.30;;;10.20;99.90;;;;;;5113484;28;20119;-75
2023/05/03 08:17:05;;;;;;;3.63;1.70;;;10.10;99.90;;;;;;5113524;28;20036;-73
2023/05/03 08:19:31;;;;;;;1.65;1.48;;;10.10;99.90;;;;;;5113554;28;20118;-74
2023/05/03 08:21:57;;;;;;;2.63;1.42;;;10.10;99.90;;;;;;5114292;28;20043;-74
2023/05/03 08:24:22;;;;;;;4.03;1.35;;;10.20;99.90;;;;;;5117013;28;20067;-71
2023/05/03 08:26:49;;;;;;;3.42;1.60;;;10.00;99.90;;;;;;5116596;28;20092;-74
2023/05/03 08:29:15;;;;;;;2.38;1.58;;;10.00;99.90;;;;;;5116844;28;20067;-76
2023/05/03 08:31:41;;;;;;;2.97;1.25;;;10.20;99.90;;;;;;5117100;28;20075;-74
2023/05/03 08:34:09;;;;;;;2.75;1.35;;;10.00;99.90;;;;;;5117157;28;20039;-72
2023/05/03 08:36:37;;;;;;;4.25;1.55;;;10.10;99.90;;;;;;5115335;28;20043;-72
2023/05/03 08:39:06;;;;;;;2.45;1.33;;;10.10;99.90;;;;;;5116739;28;20042;-76
2023/05/03 08:41:32;;;;;;;4.28;1.60;;;10.20;99.90;;;;;;5116867;28;20127;-76
2023/05/03 08:43:59;;;;;;;2.28;1.40;;;10.10;99.90;;;;;;5116703;28;20493;-76
2023/05/03 08:46:26;;;;;;;2.45;1.40;;;10.30;99.90;;;;;;5116492;28;20479;-76
2023/05/03 08:48:53;;;;;;;5.25;1.80;;;10.30;99.90;;;;;;5116865;28;20051;-77
2023/05/03 08:51:21;;;;;;;4.15;1.63;;;10.60;99.90;;;;;;5116846;28;20050;-76
2023/05/03 08:53:47;;;;;;;2.55;1.55;;;10.60;99.90;;;;;;5116430;28;20036;-75
2023/05/03 08:56:22;;;;;;;6.68;1.50;;;11.00;99.90;;;;;;5116661;28;20451;-76
2023/05/03 08:58:48;;;;;;;2.60;1.40;;;10.70;99.90;;;;;;5116367;27;20481;-75
2023/05/03 09:01:13;;;;;;;3.42;1.40;;;10.70;99.90;;;;;;5116683;28;20119;-76
2023/05/03 09:03:39;;;;;;;3.95;1.60;;;10.70;99.90;;;;;;5115838;28;20467;-76
2023/05/03 09:06:25;;;;;;;2.83;1.30;;;10.70;99.90;;;;;;5116471;28;20036;-76
2023/05/03 09:08:51;;;;;;;2.42;1.40;;;10.50;99.90;;;;;;5116448;28;20043;-75
2023/05/03 09:11:37;;;;;;;3.30;1.70;;;10.50;99.90;;;;;;5116246;28;20386;-77
2023/05/03 09:14:11;;;;;;;6.53;1.73;;;10.60;99.90;;;;;;5116371;28;20050;-76
2023/05/03 09:16:39;;;;;;;2.85;1.48;;;10.60;99.90;;;;;;5116046;28;20065;-74
2023/05/03 09:19:10;;;;;;;1.73;1.50;;;10.70;99.90;;;;;;5116082;28;20036;-73
2023/05/03 09:21:37;;;;;;;5.07;1.70;;;10.80;99.90;;;;;;5116002;28;20046;-73
2023/05/03 09:24:12;;;;;;;4.57;1.40;;;11.10;99.90;;;;;;5115847;28;20367;-74
2023/05/03 09:26:39;;;;;;;3.55;1.60;;;11.30;99.90;;;;;;5115990;28;20028;-73
2023/05/03 09:29:05;;;;;;;6.38;1.60;;;11.40;99.90;;;;;;5115741;28;20041;-73
2023/05/03 09:31:33;;;;;;;2.60;1.50;;;11.50;99.90;;;;;;5115493;28;20077;-74
2023/05/03 09:33:59;;;;;;;2.65;1.60;;;11.70;99.90;;;;;;5115419;28;20042;-73
2023/05/03 09:36:26;;;;;;;5.85;1.65;;;12.30;99.90;;;;;;5115571;28;20081;-73
2023/05/03 09:38:52;;;;;;;;;;;12.30;99.90;;;;;;5116216;28;20086;-74
2023/05/03 09:41:29;;;;;;;3.92;2.00;;;12.20;99.90;;;;;;5115763;28;19915;-73
2023/05/03 09:43:57;;;;;;;2.87;1.30;;;12.30;99.90;;;;;;5115589;28;20036;-74
2023/05/03 09:46:24;;;;;;;2.28;1.27;;;12.40;99.90;;;;;;5115630;28;20277;-75
2023/05/03 09:48:53;;;;;;;3.60;1.50;;;12.70;99.90;;;;;;5115615;28;20044;-75
2023/05/03 09:51:19;;;;;;;2.38;1.23;;;12.80;99.90;;;;;;5115247;28;20046;-73
2023/05/03 09:53:45;;;;;;;3.25;1.63;;;12.80;99.90;;;;;;5115209;28;20031;-74
2023/05/03 09:56:11;;;;;;;2.42;1.25;;;13.00;99.90;;;;;;5115413;28;20043;-75
2023/05/03 09:58:38;;;;;;;2.47;1.30;;;13.30;99.90;;;;;;5115193;28;20113;-77
2023/05/03 10:01:03;;;;;;;2.55;1.45;;;13.30;99.90;;;;;;5115343;28;20046;-76
2023/05/03 10:03:43;;;;;;;1.73;1.45;;;13.40;99.90;;;;;;5115016;28;20378;-74
2023/05/03 10:06:29;;;;;;;2.47;1.48;;;13.70;99.90;;;;;;5115158;28;20043;-76
2023/05/03 10:09:23;;;;;;;2.95;1.10;;;13.90;99.90;;;;;;5115358;28;20051;-78
2023/05/03 10:11:52;;;;;;;3.10;1.45;;;13.90;99.90;;;;;;5115239;28;20096;-76
2023/05/03 10:14:21;;;;;;;2.47;1.42;;;13.90;99.90;;;;;;5114806;28;20039;-76
2023/05/03 10:16:50;;;;;;;3.72;1.40;;;13.70;99.90;;;;;;5113813;28;20043;-79
2023/05/03 10:19:26;;;;;;;4.20;1.35;;;13.40;99.90;;;;;;5120718;28;20035;-75
2023/05/03 10:22:06;;;;;;;2.67;1.40;;;13.30;99.90;;;;;;5116917;28;20047;-73
2023/05/03 10:24:33;;;;;;;2.40;1.50;;;13.10;99.90;;;;;;5114464;27;20039;-74
2023/05/03 10:26:59;;;;;;;;;;;13.10;99.90;;;;;;5097326;28;20058;-75
2023/05/03 10:29:34;;;;;;;3.33;1.95;;;12.90;99.90;;;;;;5114549;28;19916;-74
2023/05/03 10:32:23;;;;;;;4.03;1.63;;;12.70;99.90;;;;;;5114624;28;20066;-76
2023/05/03 10:35:02;;;;;;;4.40;1.63;;;12.80;99.90;;;;;;5100209;28;20136;-78
2023/05/03 10:37:33;;;;;;;3.30;1.60;;;12.90;99.90;;;;;;5114724;28;20035;-80
2023/05/03 10:40:06;;;;;;;4.65;1.50;;;13.10;99.90;;;;;;5114591;28;20139;-75
2023/05/03 10:42:32;;;;;;;1.85;1.30;;;13.40;99.90;;;;;;5114299;28;20035;-78
2023/05/03 10:45:00;;;;;;;4.07;1.43;;;13.40;99.90;;;;;;5112690;28;20032;-76
2023/05/03 10:47:26;;;;;;;1.55;1.20;;;13.40;99.90;;;;;;5114488;28;20277;-76
2023/05/03 10:50:10;;;;;;;2.85;1.55;;;13.60;99.90;;;;;;5114290;28;20081;-76
2023/05/03 10:52:39;;;;;;;2.97;1.50;;;13.90;99.90;;;;;;5114426;28;20047;-75
2023/05/03 10:55:19;;;;;;;3.17;1.30;;;13.90;99.90;;;;;;5114016;28;20051;-76
2023/05/03 10:57:47;;;;;;;2.28;1.35;;;14.00;99.70;;;;;;5114408;28;20075;-76
2023/05/03 11:00:22;;;;;;;4.10;1.45;;;13.90;99.90;;;;;;5114540;27;20084;-75
2023/05/03 11:03:07;;;;;;;2.33;1.50;;;13.80;99.90;;;;;;5113905;28;20103;-76
2023/05/03 11:05:34;;;;;;;2.13;1.40;;;13.90;99.90;;;;;;5114368;28;20059;-77
2023/05/03 11:08:29;;;;;;;5.10;1.50;;;13.90;99.90;;;;;;5113063;28;20047;-75
2023/05/03 11:10:59;;;;;;;2.83;1.50;;;13.90;99.90;;;;;;5111757;28;20055;-75
2023/05/03 11:13:26;;;;;;;1.70;1.30;;;14.00;99.90;;;;;;5114272;28;20051;-77
2023/05/03 11:15:55;;;;;;;1.60;1.40;;;13.70;99.50;;;;;;5114106;28;20036;-75
2023/05/03 11:18:21;;;;;;;2.92;1.40;;;13.70;99.90;;;;;;5113911;28;20083;-75
2023/05/03 11:20:48;;;;;;;2.05;1.48;;;14.10;99.90;;;;;;5113810;28;20490;-76
2023/05/03 11:23:14;;;;;;;2.20;1.55;;;13.90;99.90;;;;;;5113999;28;20075;-76
2023/05/03 11:25:40;;;;;;;3.23;1.33;;;13.90;98.80;;;;;;5113907;28;20057;-77
2023/05/03 11:28:06;;;;;;;5.70;1.60;;;13.90;99.90;;;;;;5113130;28;20273;-76
2023/05/03 11:30:33;;;;;;;3.95;1.85;;;14.00;99.90;;;;;;5114073;28;20319;-77
2023/05/03 11:32:59;;;;;;;4.53;1.77;;;14.30;99.90;;;;;;5113411;28;20065;-75
2023/05/03 11:35:28;;;;;;;3.40;1.50;;;14.30;99.90;;;;;;5114265;28;20036;-76
2023/05/03 11:37:54;;;;;;;2.75;1.88;;;14.30;99.90;;;;;;5113611;28;20752;-77
2023/05/03 11:40:20;;;;;;;4.00;1.98;;;14.30;99.90;;;;;;5113979;28;20144;-76
2023/05/03 11:42:52;;;;;;;7.00;1.80;;;14.40;99.90;;;;;;5113982;28;20044;-76
2023/05/03 11:45:26;;;;;;;4.03;1.60;;;14.50;99.90;;;;;;5113714;28;20043;-77
2023/05/03 11:47:52;;;;;;;5.03;2.00;;;14.40;98.80;;;;;;5113656;28;20503;-76
2023/05/03 11:50:25;;;;;;;3.53;1.50;;;14.50;99.60;;;;;;5113654;28;20547;-76
2023/05/03 11:52:51;;;;;;;2.88;1.70;;;14.60;99.30;;;;;;5113610;28;20051;-76
2023/05/03 11:55:17;;;;;;;2.42;1.83;;;14.60;99.50;;;;;;5113769;28;20091;-76
2023/05/03 11:57:43;;;;;;;3.23;1.67;;;14.60;99.90;;;;;;5117270;28;20114;-76
2023/05/03 12:00:20;;;;;;;1.98;1.77;;;14.50;99.70;;;;;;5117684;28;20043;-75
2023/05/03 12:02:49;;;;;;;3.80;1.70;;;14.50;99.90;;;;;;5117544;28;20075;-75
2023/05/03 12:05:16;;;;;;;3.13;1.88;;;14.50;99.40;;;;;;5117423;28;20058;-76
2023/05/03 12:07:41;;;;;;;3.00;1.73;;;14.30;98.00;;;;;;5116754;28;20043;-77
2023/05/03 12:10:17;;;;;;;2.33;1.80;;;14.10;99.90;;;;;;5116057;28;20463;-77
2023/05/03 12:12:56;;;;;;;2.60;1.88;;;14.20;99.40;;;;;;5117423;28;20043;-77
2023/05/03 12:15:36;;;;;;;4.63;1.65;;;14.30;99.40;;;;;;5116317;28;20044;-76
2023/05/03 12:18:05;;;;;;;3.80;1.98;;;14.40;99.50;;;;;;5117263;28;20077;-74
2023/05/03 12:20:35;;;;;;;3.30;2.08;;;14.40;99.10;;;;;;5117400;28;20197;-76
2023/05/03 12:23:09;;;;;;;5.78;1.98;;;14.40;98.30;;;;;;5117113;28;20036;-76
2023/05/03 12:25:37;;;;;;;2.45;1.55;;;14.50;99.40;;;;;;5115939;28;20735;-79
2023/05/03 12:28:05;;;;;;;2.75;1.90;;;14.60;99.50;;;;;;5117303;28;20036;-77
2023/05/03 12:30:31;;;;;;;3.42;1.90;;;14.70;99.90;;;;;;5116391;28;20035;-76
2023/05/03 12:32:57;;;;;;;3.92;2.00;;;14.90;99.90;;;;;;5116970;28;20040;-76
2023/05/03 12:35:28;;;;;;;5.60;2.13;;;14.80;99.10;;;;;;5116852;28;20036;-78
2023/05/03 12:37:56;;;;;;;4.40;1.90;;;14.80;98.80;;;;;;5099507;28;20048;-78
2023/05/03 12:40:27;;;;;;;3.60;1.80;;;14.80;99.30;;;;;;5117280;28;20039;-76
2023/05/03 12:42:53;;;;;;;2.70;1.80;;;14.80;98.80;;;;;;5116113;28;20124;-77
2023/05/03 12:45:21;;;;;;;5.72;1.77;;;15.00;99.90;;;;;;5116888;28;20067;-77
2023/05/03 12:47:56;;;;;;;4.25;2.15;;;15.20;99.70;;;;;;5114373;28;20391;-79
2023/05/03 12:50:24;;;;;;;3.20;1.98;;;15.30;97.70;;;;;;5116316;28;20165;-76
2023/05/03 12:52:50;;;;;;;3.03;1.90;;;15.10;98.70;;;;;;5097814;28;20092;-77
2023/05/03 12:55:16;;;;;;;6.47;1.90;;;15.10;99.60;;;;;;5095198;28;20036;-76
2023/05/03 12:57:42;;;;;;;2.73;1.97;;;15.10;99.80;;;;;;5096399;28;20126;-76
2023/05/03 13:00:08;;;;;;;3.40;1.90;;;15.40;99.80;;;;;;5096397;28;20529;-76